createdAt,value
2019-05-31T00:00:33.619Z,0.00
2019-05-31T00:01:33.613Z,0.00
2019-05-31T00:02:33.611Z,0.00
2019-05-31T00:03:33.610Z,0.00
2019-05-31T00:04:33.610Z,0.00
2019-05-31T00:05:33.608Z,0.00
2019-05-31T00:06:33.604Z,0.00
2019-05-31T00:07:34.076Z,0.00
2019-05-31T00:08:33.594Z,0.00
2019-05-31T00:09:33.593Z,0.00
2019-05-31T00:10:33.592Z,0.00
2019-05-31T00:11:33.587Z,0.00
2019-05-31T00:12:33.588Z,0.00
2019-05-31T00:13:33.588Z,0.00
2019-05-31T00:14:33.581Z,0.00
2019-05-31T00:15:33.576Z,0.00
2019-05-31T00:16:33.588Z,0.00
2019-05-31T00:17:33.577Z,0.00
2019-05-31T00:18:36.095Z,0.00
2019-05-31T00:19:33.566Z,0.00
2019-05-31T00:20:33.561Z,0.00
2019-05-31T00:21:33.559Z,0.00
2019-05-31T00:22:33.555Z,0.00
2019-05-31T00:23:33.554Z,0.00
2019-05-31T00:24:33.554Z,0.00
2019-05-31T00:25:33.561Z,0.00
2019-05-31T00:26:33.552Z,0.00
2019-05-31T00:27:33.549Z,0.00
2019-05-31T00:28:33.544Z,0.00
2019-05-31T00:29:33.542Z,0.00
2019-05-31T00:30:33.544Z,0.00
2019-05-31T00:31:33.538Z,0.00
2019-05-31T00:32:33.546Z,0.00
2019-05-31T00:33:33.529Z,0.00
2019-05-31T00:34:33.525Z,0.00
2019-05-31T00:35:33.521Z,0.00
2019-05-31T00:36:33.521Z,0.00
2019-05-31T00:37:33.520Z,0.00
2019-05-31T00:38:33.517Z,0.00
2019-05-31T00:39:33.517Z,0.00
2019-05-31T00:40:33.506Z,0.00
2019-05-31T00:41:33.503Z,0.00
2019-05-31T00:42:33.507Z,0.00
2019-05-31T00:43:33.512Z,0.00
2019-05-31T00:44:33.507Z,0.00
2019-05-31T00:45:33.500Z,0.00
2019-05-31T00:46:33.493Z,0.00
2019-05-31T00:47:33.492Z,0.00
2019-05-31T00:48:33.492Z,0.00
2019-05-31T00:49:33.490Z,0.00
2019-05-31T00:50:33.486Z,0.00
2019-05-31T00:51:33.486Z,0.00
2019-05-31T00:52:33.476Z,0.00
2019-05-31T00:53:33.473Z,0.00
2019-05-31T00:54:33.469Z,0.00
2019-05-31T00:55:33.464Z,0.00
2019-05-31T00:56:33.476Z,0.00
2019-05-31T00:57:33.466Z,0.00
2019-05-31T00:58:33.464Z,0.00
2019-05-31T00:59:33.467Z,0.00
2019-05-31T01:00:33.454Z,0.00
2019-05-31T01:01:33.450Z,0.00
2019-05-31T01:02:33.454Z,0.00
2019-05-31T01:03:33.450Z,0.00
2019-05-31T01:04:33.447Z,0.00
2019-05-31T01:05:33.442Z,0.00
2019-05-31T01:06:33.437Z,0.00
2019-05-31T01:07:33.435Z,0.00
2019-05-31T01:08:33.434Z,0.00
2019-05-31T01:09:33.432Z,0.00
2019-05-31T01:10:33.432Z,0.00
2019-05-31T01:11:33.428Z,0.00
2019-05-31T01:12:33.421Z,0.00
2019-05-31T01:13:33.422Z,0.00
2019-05-31T01:14:49.020Z,0.00
2019-05-31T01:15:33.416Z,0.00
2019-05-31T01:16:33.411Z,0.00
2019-05-31T01:17:33.408Z,0.00
2019-05-31T01:18:33.460Z,0.00
2019-05-31T01:19:33.397Z,0.00
2019-05-31T01:20:33.402Z,0.00
2019-05-31T01:21:33.399Z,0.00
2019-05-31T01:22:33.396Z,0.00
2019-05-31T01:23:33.396Z,0.00
2019-05-31T01:24:33.390Z,0.00
2019-05-31T01:25:33.383Z,0.00
2019-05-31T01:26:33.381Z,0.00
2019-05-31T01:27:33.379Z,0.00
2019-05-31T01:28:33.378Z,0.00
2019-05-31T01:29:33.378Z,0.00
2019-05-31T01:30:33.373Z,0.00
2019-05-31T01:31:33.368Z,0.00
2019-05-31T01:32:33.363Z,0.00
2019-05-31T01:33:33.357Z,0.00
2019-05-31T01:34:33.362Z,0.00
2019-05-31T01:35:33.357Z,0.00
2019-05-31T01:36:33.348Z,0.00
2019-05-31T01:37:33.348Z,0.00
2019-05-31T01:38:33.348Z,0.00
2019-05-31T01:39:33.343Z,0.00
2019-05-31T01:40:33.344Z,0.00
2019-05-31T01:41:33.343Z,0.00
2019-05-31T01:42:33.338Z,0.00
2019-05-31T01:43:33.337Z,0.00
2019-05-31T01:44:33.330Z,0.00
2019-05-31T01:45:33.327Z,0.00
2019-05-31T01:46:33.322Z,0.00
2019-05-31T01:47:33.317Z,0.00
2019-05-31T01:48:33.320Z,0.00
2019-05-31T01:49:33.316Z,0.00
2019-05-31T01:50:33.309Z,0.00
2019-05-31T01:51:33.314Z,0.00
2019-05-31T01:52:33.308Z,0.00
2019-05-31T01:53:33.306Z,0.00
2019-05-31T01:54:33.306Z,0.00
2019-05-31T01:55:33.300Z,0.00
2019-05-31T01:56:33.293Z,0.00
2019-05-31T01:57:33.291Z,0.00
2019-05-31T01:58:33.289Z,0.00
2019-05-31T01:59:33.284Z,0.00
2019-05-31T02:00:33.291Z,0.00
2019-05-31T02:01:33.288Z,0.00
2019-05-31T02:02:33.294Z,0.00
2019-05-31T02:03:33.275Z,0.00
2019-05-31T02:04:33.267Z,0.00
2019-05-31T02:05:33.265Z,0.00
2019-05-31T02:06:33.267Z,0.00
2019-05-31T02:07:33.272Z,0.00
2019-05-31T02:08:33.257Z,0.00
2019-05-31T02:09:33.253Z,0.00
2019-05-31T02:10:33.254Z,0.00
2019-05-31T02:11:33.249Z,0.00
2019-05-31T02:12:33.250Z,0.00
2019-05-31T02:13:33.251Z,0.00
2019-05-31T02:14:33.243Z,0.00
2019-05-31T02:15:33.249Z,0.00
2019-05-31T02:16:34.347Z,0.00
2019-05-31T02:17:33.228Z,0.00
2019-05-31T02:18:33.229Z,0.00
2019-05-31T02:19:33.226Z,0.00
2019-05-31T02:20:33.229Z,0.00
2019-05-31T02:21:33.222Z,0.00
2019-05-31T02:22:33.218Z,0.00
2019-05-31T02:23:33.213Z,0.00
2019-05-31T02:24:33.215Z,0.00
2019-05-31T02:25:33.215Z,0.00
2019-05-31T02:26:33.206Z,0.00
2019-05-31T02:27:33.204Z,0.00
2019-05-31T02:28:33.197Z,0.00
2019-05-31T02:29:33.215Z,0.00
2019-05-31T02:30:33.190Z,0.00
2019-05-31T02:31:33.201Z,0.00
2019-05-31T02:32:33.188Z,0.00
2019-05-31T02:33:33.187Z,0.00
2019-05-31T02:34:33.185Z,0.00
2019-05-31T02:35:33.180Z,0.00
2019-05-31T02:36:33.178Z,0.00
2019-05-31T02:37:33.172Z,0.00
2019-05-31T02:38:33.173Z,0.00
2019-05-31T02:39:33.171Z,0.00
2019-05-31T02:40:33.162Z,0.00
2019-05-31T02:41:33.165Z,0.00
2019-05-31T02:42:33.156Z,0.00
2019-05-31T02:43:33.152Z,0.00
2019-05-31T02:44:33.155Z,0.00
2019-05-31T02:45:46.169Z,0.00
2019-05-31T02:46:33.148Z,0.00
2019-05-31T02:47:33.143Z,0.00
2019-05-31T02:48:33.147Z,0.00
2019-05-31T02:49:33.138Z,0.00
2019-05-31T02:50:33.136Z,0.00
2019-05-31T02:51:33.134Z,0.00
2019-05-31T02:52:33.131Z,0.00
2019-05-31T02:53:33.136Z,4.00
2019-05-31T02:54:33.122Z,4.00
2019-05-31T02:55:33.133Z,0.00
2019-05-31T02:56:33.119Z,0.00
2019-05-31T02:57:33.117Z,4.00
2019-05-31T02:58:33.116Z,4.00
2019-05-31T02:59:33.107Z,4.00
2019-05-31T03:00:33.103Z,4.00
2019-05-31T03:01:33.098Z,4.00
2019-05-31T03:02:33.096Z,8.00
2019-05-31T03:03:33.092Z,8.00
2019-05-31T03:04:33.096Z,12.00
2019-05-31T03:05:33.090Z,12.00
2019-05-31T03:06:33.090Z,12.00
2019-05-31T03:07:33.088Z,12.00
2019-05-31T03:08:33.080Z,16.00
2019-05-31T03:09:33.077Z,20.00
2019-05-31T03:10:33.080Z,20.00
2019-05-31T03:11:33.072Z,24.00
2019-05-31T03:12:33.067Z,24.00
2019-05-31T03:13:33.065Z,28.00
2019-05-31T03:14:33.071Z,28.00
2019-05-31T03:15:33.056Z,32.00
2019-05-31T03:16:33.056Z,40.00
2019-05-31T03:17:33.054Z,44.00
2019-05-31T03:18:33.053Z,48.00
2019-05-31T03:19:33.055Z,52.00
2019-05-31T03:20:33.042Z,56.00
2019-05-31T03:21:33.056Z,60.00
2019-05-31T03:22:33.036Z,64.00
2019-05-31T03:23:33.031Z,64.00
2019-05-31T03:24:33.034Z,72.00
2019-05-31T03:25:33.028Z,76.00
2019-05-31T03:26:33.021Z,72.00
2019-05-31T03:27:33.020Z,72.00
2019-05-31T03:28:33.025Z,72.00
2019-05-31T03:29:33.016Z,72.00
2019-05-31T03:30:37.223Z,80.00
2019-05-31T03:31:36.454Z,88.00
2019-05-31T03:32:38.568Z,92.00
2019-05-31T03:33:37.384Z,100.00
2019-05-31T03:34:35.600Z,108.00
2019-05-31T03:35:38.106Z,116.00
2019-05-31T03:36:36.464Z,128.00
2019-05-31T03:37:32.995Z,144.00
2019-05-31T03:38:32.989Z,180.00
2019-05-31T03:39:32.987Z,204.00
2019-05-31T03:40:32.978Z,232.00
2019-05-31T03:41:32.977Z,256.00
2019-05-31T03:42:32.982Z,276.00
2019-05-31T03:43:32.974Z,284.00
2019-05-31T03:44:32.967Z,280.00
2019-05-31T03:45:32.964Z,280.00
2019-05-31T03:46:42.021Z,288.00
2019-05-31T03:47:32.960Z,304.00
2019-05-31T03:48:32.967Z,320.00
2019-05-31T03:49:32.958Z,328.00
2019-05-31T03:50:32.959Z,312.00
2019-05-31T03:51:32.956Z,296.00
2019-05-31T03:52:32.946Z,276.00
2019-05-31T03:53:32.941Z,276.00
2019-05-31T03:54:32.935Z,288.00
2019-05-31T03:55:32.932Z,308.00
2019-05-31T03:56:32.931Z,320.00
2019-05-31T03:57:32.928Z,312.00
2019-05-31T03:58:32.923Z,300.00
2019-05-31T03:59:32.922Z,300.00
2019-05-31T04:00:32.921Z,320.00
2019-05-31T04:01:32.920Z,344.00
2019-05-31T04:02:32.917Z,360.00
2019-05-31T04:03:32.914Z,372.00
2019-05-31T04:04:32.907Z,368.00
2019-05-31T04:05:32.904Z,376.00
2019-05-31T04:06:32.901Z,364.00
2019-05-31T04:07:32.898Z,356.00
2019-05-31T04:08:32.905Z,356.00
2019-05-31T04:09:33.520Z,360.00
2019-05-31T04:10:32.898Z,368.00
2019-05-31T04:11:32.886Z,364.00
2019-05-31T04:12:32.878Z,376.00
2019-05-31T04:13:32.876Z,396.00
2019-05-31T04:14:32.884Z,412.00
2019-05-31T04:15:32.882Z,432.00
2019-05-31T04:16:48.912Z,460.00
2019-05-31T04:17:32.865Z,508.00
2019-05-31T04:18:34.776Z,564.00
2019-05-31T04:19:32.858Z,632.00
2019-05-31T04:20:32.861Z,724.00
2019-05-31T04:21:32.858Z,808.00
2019-05-31T04:22:32.853Z,896.00
2019-05-31T04:23:32.849Z,952.00
2019-05-31T04:24:32.846Z,996.00
2019-05-31T04:25:32.840Z,1036.00
2019-05-31T04:26:32.841Z,1052.00
2019-05-31T04:27:32.835Z,1076.00
2019-05-31T04:28:32.837Z,1092.00
2019-05-31T04:29:32.833Z,1092.00
2019-05-31T04:30:32.825Z,1064.00
2019-05-31T04:31:32.821Z,1072.00
2019-05-31T04:32:32.822Z,1100.00
2019-05-31T04:33:32.822Z,1100.00
2019-05-31T04:34:33.055Z,1124.00
2019-05-31T04:35:32.815Z,1148.00
2019-05-31T04:36:32.803Z,1148.00
2019-05-31T04:37:32.802Z,1184.00
2019-05-31T04:38:32.798Z,1204.00
2019-05-31T04:39:32.796Z,1236.00
2019-05-31T04:40:32.798Z,1276.00
2019-05-31T04:41:32.794Z,1300.00
2019-05-31T04:42:32.793Z,1344.00
2019-05-31T04:43:32.790Z,1404.00
2019-05-31T04:44:32.782Z,1464.00
2019-05-31T04:45:32.780Z,1480.00
2019-05-31T04:46:32.784Z,1496.00
2019-05-31T04:47:32.783Z,1528.00
2019-05-31T04:48:32.771Z,1580.00
2019-05-31T04:49:32.770Z,1616.00
2019-05-31T04:50:32.763Z,1620.00
2019-05-31T04:51:32.759Z,1656.00
2019-05-31T04:52:32.762Z,1732.00
2019-05-31T04:53:32.759Z,1764.00
2019-05-31T04:54:32.761Z,1776.00
2019-05-31T04:55:32.771Z,1820.00
2019-05-31T04:56:32.745Z,1856.00
2019-05-31T04:57:32.741Z,1900.00
2019-05-31T04:58:32.742Z,1884.00
2019-05-31T04:59:32.743Z,1884.00
2019-05-31T05:00:32.738Z,1884.00
2019-05-31T05:01:32.737Z,1904.00
2019-05-31T05:02:32.748Z,1960.00
2019-05-31T05:03:32.729Z,2004.00
2019-05-31T05:04:32.734Z,2132.00
2019-05-31T05:05:32.727Z,2316.00
2019-05-31T05:06:32.723Z,2408.00
2019-05-31T05:07:32.726Z,2464.00
2019-05-31T05:08:32.708Z,2560.00
2019-05-31T05:09:33.147Z,2692.00
2019-05-31T05:10:32.703Z,2832.00
2019-05-31T05:11:32.703Z,2964.00
2019-05-31T05:12:32.701Z,3068.00
2019-05-31T05:13:32.699Z,3120.00
2019-05-31T05:14:32.698Z,3176.00
2019-05-31T05:15:32.699Z,3248.00
2019-05-31T05:16:32.688Z,3344.00
2019-05-31T05:17:41.296Z,3352.00
2019-05-31T05:18:32.688Z,3288.00
2019-05-31T05:19:32.690Z,3296.00
2019-05-31T05:20:32.676Z,3412.00
2019-05-31T05:21:32.676Z,3548.00
2019-05-31T05:22:32.675Z,3732.00
2019-05-31T05:23:32.666Z,3908.00
2019-05-31T05:24:32.668Z,4016.00
2019-05-31T05:25:32.668Z,3956.00
2019-05-31T05:26:32.663Z,3932.00
2019-05-31T05:27:32.659Z,4008.00
2019-05-31T05:28:32.652Z,4076.00
2019-05-31T05:29:32.654Z,4180.00
2019-05-31T05:30:32.652Z,4268.00
2019-05-31T05:31:32.648Z,4220.00
2019-05-31T05:32:32.650Z,4044.00
2019-05-31T05:33:32.646Z,3944.00
2019-05-31T05:34:32.641Z,3952.00
2019-05-31T05:35:32.638Z,4188.00
2019-05-31T05:36:32.640Z,4292.00
2019-05-31T05:37:32.637Z,4252.00
2019-05-31T05:38:32.634Z,4276.00
2019-05-31T05:39:32.629Z,4400.00
2019-05-31T05:40:32.624Z,4712.00
2019-05-31T05:41:32.620Z,5100.00
2019-05-31T05:42:32.622Z,5240.00
2019-05-31T05:43:32.617Z,5236.00
2019-05-31T05:44:32.617Z,5116.00
2019-05-31T05:45:32.615Z,5032.00
2019-05-31T05:46:32.620Z,5172.00
2019-05-31T05:47:46.902Z,5380.00
2019-05-31T05:48:32.609Z,5560.00
2019-05-31T05:49:32.605Z,5896.00
2019-05-31T05:50:32.609Z,6116.00
2019-05-31T05:51:32.606Z,6276.00
2019-05-31T05:52:32.601Z,6580.00
2019-05-31T05:53:32.598Z,6984.00
2019-05-31T05:54:32.594Z,7416.00
2019-05-31T05:55:32.590Z,7860.00
2019-05-31T05:56:34.465Z,8160.00
2019-05-31T05:57:32.591Z,8388.00
2019-05-31T05:58:32.590Z,8480.00
2019-05-31T05:59:32.585Z,8664.00
2019-05-31T06:00:32.583Z,8888.00
2019-05-31T06:01:32.579Z,9348.00
2019-05-31T06:02:32.581Z,9596.00
2019-05-31T06:03:32.581Z,9896.00
2019-05-31T06:04:32.581Z,10208.00
2019-05-31T06:05:32.585Z,10328.00
2019-05-31T06:06:32.576Z,10700.00
2019-05-31T06:07:32.574Z,11284.00
2019-05-31T06:08:35.506Z,12188.00
2019-05-31T06:09:32.728Z,14356.00
2019-05-31T06:10:32.922Z,14112.00
2019-05-31T06:11:33.535Z,18272.00
2019-05-31T06:12:33.181Z,12052.00
2019-05-31T06:13:32.562Z,11860.00
2019-05-31T06:14:32.562Z,11448.00
2019-05-31T06:15:32.565Z,11100.00
2019-05-31T06:16:50.173Z,10528.00
2019-05-31T06:17:32.581Z,10304.00
2019-05-31T06:18:32.568Z,10256.00
2019-05-31T06:19:32.628Z,10196.00
2019-05-31T06:20:32.608Z,10372.00
2019-05-31T06:21:32.561Z,10748.00
2019-05-31T06:22:35.087Z,11248.00
2019-05-31T06:23:32.799Z,11976.00
2019-05-31T06:24:32.849Z,12244.00
2019-05-31T06:25:36.426Z,12420.00
2019-05-31T06:26:32.694Z,12700.00
2019-05-31T06:27:32.699Z,13084.00
2019-05-31T06:28:32.807Z,13612.00
2019-05-31T06:29:32.814Z,14140.00
2019-05-31T06:30:32.883Z,15636.00
2019-05-31T06:31:32.927Z,18720.00
2019-05-31T06:32:33.012Z,16088.00
2019-05-31T06:33:32.980Z,14716.00
2019-05-31T06:34:32.929Z,14288.00
2019-05-31T06:35:33.006Z,14244.00
2019-05-31T06:36:32.961Z,17632.00
2019-05-31T06:37:33.043Z,15116.00
2019-05-31T06:38:32.928Z,13428.00
2019-05-31T06:39:33.175Z,14408.00
2019-05-31T06:40:33.896Z,17280.00
2019-05-31T06:41:32.568Z,26464.00
2019-05-31T06:42:34.010Z,25984.00
2019-05-31T06:43:35.465Z,41504.00
2019-05-31T06:44:33.488Z,40832.00
2019-05-31T06:45:32.882Z,33248.00
2019-05-31T06:46:33.845Z,28384.00
2019-05-31T06:47:32.748Z,26560.00
2019-05-31T06:48:33.590Z,37088.00
2019-05-31T06:49:32.820Z,40256.00
2019-05-31T06:50:35.947Z,35744.00
2019-05-31T06:51:33.100Z,37504.00
2019-05-31T06:52:32.588Z,40512.00
2019-05-31T06:53:33.369Z,40992.00
2019-05-31T06:54:35.384Z,38944.00
2019-05-31T06:55:33.523Z,26976.00
2019-05-31T06:56:33.751Z,38496.00
2019-05-31T06:57:33.964Z,42720.00
2019-05-31T06:58:32.620Z,37856.00
2019-05-31T06:59:32.625Z,35232.00
2019-05-31T07:00:33.326Z,53184.00
2019-05-31T07:01:32.642Z,32800.00
2019-05-31T07:02:32.648Z,46016.00
2019-05-31T07:03:32.936Z,56928.00
2019-05-31T07:04:32.962Z,52864.00
2019-05-31T07:05:33.767Z,76544.00
2019-05-31T07:06:32.804Z,78592.00
2019-05-31T07:07:38.042Z,61696.00
2019-05-31T07:08:33.056Z,49856.00
2019-05-31T07:09:34.963Z,64768.00
2019-05-31T07:10:33.358Z,67328.00
2019-05-31T07:11:33.482Z,66016.00
2019-05-31T07:12:33.525Z,65088.00
2019-05-31T07:13:33.762Z,68992.00
2019-05-31T07:14:34.473Z,73664.00
2019-05-31T07:15:34.544Z,76672.00
2019-05-31T07:16:34.257Z,83040.00
2019-05-31T07:17:49.104Z,79904.00
2019-05-31T07:18:40.800Z,75136.00
2019-05-31T07:19:32.789Z,75488.00
2019-05-31T07:20:32.807Z,79584.00
2019-05-31T07:21:36.801Z,89440.00
2019-05-31T07:22:33.074Z,95392.00
2019-05-31T07:23:38.033Z,91232.00
2019-05-31T07:24:32.843Z,85728.00
2019-05-31T07:25:32.870Z,85024.00
2019-05-31T07:26:33.008Z,89792.00
2019-05-31T07:27:33.029Z,89408.00
2019-05-31T07:28:33.306Z,86816.00
2019-05-31T07:29:38.500Z,93824.00
2019-05-31T07:30:33.528Z,103616.00
2019-05-31T07:31:32.931Z,100544.00
2019-05-31T07:32:33.633Z,91200.00
2019-05-31T07:33:34.249Z,90368.00
2019-05-31T07:34:33.865Z,91424.00
2019-05-31T07:35:34.064Z,89728.00
2019-05-31T07:36:34.224Z,84288.00
2019-05-31T07:37:36.679Z,78080.00
2019-05-31T07:38:34.361Z,79008.00
2019-05-31T07:39:33.092Z,79392.00
2019-05-31T07:40:33.056Z,75360.00
2019-05-31T07:41:33.076Z,71584.00
2019-05-31T07:42:33.080Z,73056.00
2019-05-31T07:43:33.411Z,76864.00
2019-05-31T07:44:33.368Z,74592.00
2019-05-31T07:45:33.414Z,70592.00
2019-05-31T07:46:48.860Z,70720.00
2019-05-31T07:47:33.602Z,74048.00
2019-05-31T07:48:34.098Z,78080.00
2019-05-31T07:49:33.949Z,76832.00
2019-05-31T07:50:34.430Z,64320.00
2019-05-31T07:51:34.267Z,60256.00
2019-05-31T07:52:34.465Z,62976.00
2019-05-31T07:53:34.402Z,64352.00
2019-05-31T07:54:33.325Z,65184.00
2019-05-31T07:55:34.579Z,64768.00
2019-05-31T07:56:33.290Z,64736.00
2019-05-31T07:57:33.308Z,64128.00
2019-05-31T07:58:33.329Z,64768.00
2019-05-31T07:59:33.757Z,65920.00
2019-05-31T08:00:33.351Z,66336.00
2019-05-31T08:01:33.370Z,67008.00
2019-05-31T08:02:33.381Z,65280.00
2019-05-31T08:03:33.396Z,63744.00
2019-05-31T08:04:33.415Z,60960.00
2019-05-31T08:05:33.597Z,60320.00
2019-05-31T08:06:38.020Z,62368.00
2019-05-31T08:07:33.585Z,61856.00
2019-05-31T08:08:36.265Z,62560.00
2019-05-31T08:09:35.278Z,58912.00
2019-05-31T08:10:33.726Z,59552.00
2019-05-31T08:11:33.619Z,58944.00
2019-05-31T08:12:33.556Z,60928.00
2019-05-31T08:13:33.801Z,61408.00
2019-05-31T08:14:33.837Z,61568.00
2019-05-31T08:15:33.803Z,62336.00
2019-05-31T08:16:34.073Z,62016.00
2019-05-31T08:17:33.638Z,61440.00
2019-05-31T08:18:37.340Z,59776.00
2019-05-31T08:19:33.669Z,60032.00
2019-05-31T08:20:33.746Z,61216.00
2019-05-31T08:21:35.718Z,61312.00
2019-05-31T08:22:33.718Z,60736.00
2019-05-31T08:23:35.120Z,60256.00
2019-05-31T08:24:34.317Z,58528.00
2019-05-31T08:25:34.649Z,59232.00
2019-05-31T08:26:34.006Z,60032.00
2019-05-31T08:27:34.320Z,62272.00
2019-05-31T08:28:34.464Z,64288.00
2019-05-31T08:29:34.275Z,65664.00
2019-05-31T08:30:34.678Z,60640.00
2019-05-31T08:31:35.096Z,59712.00
2019-05-31T08:32:34.610Z,61088.00
2019-05-31T08:33:35.090Z,64096.00
2019-05-31T08:34:33.947Z,64384.00
2019-05-31T08:35:33.959Z,64096.00
2019-05-31T08:36:35.164Z,66496.00
2019-05-31T08:37:34.398Z,68928.00
2019-05-31T08:38:34.804Z,66496.00
2019-05-31T08:39:34.824Z,65216.00
2019-05-31T08:40:37.139Z,67904.00
2019-05-31T08:41:34.639Z,72480.00
2019-05-31T08:42:34.735Z,78656.00
2019-05-31T08:43:35.401Z,81952.00
2019-05-31T08:44:34.920Z,75456.00
2019-05-31T08:45:34.952Z,68256.00
2019-05-31T08:46:35.138Z,66784.00
2019-05-31T08:47:35.662Z,63040.00
2019-05-31T08:48:35.499Z,62048.00
2019-05-31T08:49:45.176Z,63776.00
2019-05-31T08:50:35.368Z,61632.00
2019-05-31T08:51:35.454Z,62048.00
2019-05-31T08:52:41.648Z,60832.00
2019-05-31T08:53:35.579Z,59968.00
2019-05-31T08:54:35.379Z,60896.00
2019-05-31T08:55:35.649Z,60480.00
2019-05-31T08:56:35.702Z,60640.00
2019-05-31T08:57:34.424Z,60992.00
2019-05-31T08:58:35.637Z,61216.00
2019-05-31T08:59:35.774Z,60992.00
2019-05-31T09:00:36.213Z,62304.00
2019-05-31T09:01:34.503Z,63072.00
2019-05-31T09:02:34.530Z,63392.00
2019-05-31T09:03:41.558Z,63136.00
2019-05-31T09:04:34.572Z,65088.00
2019-05-31T09:05:34.593Z,65792.00
2019-05-31T09:06:34.618Z,67360.00
2019-05-31T09:07:34.638Z,52352.00
2019-05-31T09:08:34.666Z,67264.00
2019-05-31T09:09:35.076Z,65760.00
2019-05-31T09:10:36.237Z,65984.00
2019-05-31T09:11:35.778Z,65696.00
2019-05-31T09:12:34.752Z,67360.00
2019-05-31T09:13:36.419Z,67168.00
2019-05-31T09:14:36.141Z,68544.00
2019-05-31T09:15:36.295Z,67328.00
2019-05-31T09:16:35.564Z,68736.00
2019-05-31T09:17:36.171Z,70560.00
2019-05-31T09:18:36.498Z,71360.00
2019-05-31T09:19:54.912Z,69152.00
2019-05-31T09:20:36.198Z,59904.00
2019-05-31T09:21:34.961Z,68096.00
2019-05-31T09:22:34.986Z,67232.00
2019-05-31T09:23:35.419Z,67200.00
2019-05-31T09:24:35.965Z,65440.00
2019-05-31T09:25:35.134Z,62080.00
2019-05-31T09:26:38.483Z,61344.00
2019-05-31T09:27:47.936Z,59904.00
2019-05-31T09:28:36.158Z,61120.00
2019-05-31T09:30:01.657Z,43264.00
2019-05-31T09:30:36.294Z,66240.00
2019-05-31T09:31:36.596Z,62400.00
2019-05-31T09:32:36.171Z,62368.00
2019-05-31T09:33:36.308Z,61568.00
2019-05-31T09:34:36.720Z,53696.00
2019-05-31T09:35:36.242Z,61760.00
2019-05-31T09:36:35.309Z,61184.00
2019-05-31T09:37:35.333Z,56256.00
2019-05-31T09:38:35.357Z,53824.00
2019-05-31T09:39:41.092Z,32288.00
2019-05-31T09:40:35.407Z,18304.00
2019-05-31T09:41:37.528Z,17888.00
2019-05-31T09:42:35.448Z,12692.00
2019-05-31T09:43:35.508Z,10952.00
2019-05-31T09:44:35.817Z,74848.00
2019-05-31T09:45:37.034Z,79392.00
2019-05-31T09:46:35.622Z,29312.00
2019-05-31T09:47:35.879Z,42016.00
2019-05-31T09:48:35.584Z,79616.00
2019-05-31T09:49:36.063Z,49568.00
2019-05-31T09:50:35.629Z,86624.00
2019-05-31T09:51:37.135Z,91232.00
2019-05-31T09:52:36.671Z,34048.00
2019-05-31T09:53:35.812Z,91360.00
2019-05-31T09:54:44.487Z,96032.00
2019-05-31T09:55:35.802Z,53536.00
2019-05-31T09:56:37.149Z,68032.00
2019-05-31T09:57:36.290Z,86976.00
2019-05-31T09:58:35.855Z,66528.00
2019-05-31T09:59:36.382Z,66272.00
2019-05-31T10:00:37.286Z,21472.00
2019-05-31T10:01:37.242Z,92192.00
2019-05-31T10:02:36.236Z,99328.00
2019-05-31T10:03:36.203Z,98624.00
2019-05-31T10:04:35.998Z,19136.00
2019-05-31T10:05:36.221Z,97952.00
2019-05-31T10:06:36.476Z,15112.00
2019-05-31T10:07:36.369Z,32768.00
2019-05-31T10:08:38.695Z,32832.00
2019-05-31T10:09:36.199Z,16576.00
2019-05-31T10:10:37.872Z,17600.00
2019-05-31T10:11:36.859Z,14320.00
2019-05-31T10:12:38.083Z,38656.00
2019-05-31T10:13:36.387Z,18784.00
2019-05-31T10:14:37.540Z,34080.00
2019-05-31T10:15:37.021Z,83840.00
2019-05-31T10:16:36.776Z,85600.00
2019-05-31T10:17:37.959Z,78880.00
2019-05-31T10:18:37.583Z,34432.00
2019-05-31T10:19:37.559Z,82816.00
2019-05-31T10:20:37.757Z,81760.00
2019-05-31T10:21:36.674Z,77344.00
2019-05-31T10:22:37.704Z,78720.00
2019-05-31T10:23:48.852Z,81408.00
2019-05-31T10:24:36.805Z,81664.00
2019-05-31T10:25:38.404Z,80800.00
2019-05-31T10:26:36.812Z,78400.00
2019-05-31T10:27:36.917Z,76896.00
2019-05-31T10:28:37.043Z,38976.00
2019-05-31T10:29:37.546Z,72544.00
2019-05-31T10:30:37.369Z,56928.00
2019-05-31T10:31:37.295Z,76800.00
2019-05-31T10:32:37.470Z,76768.00
2019-05-31T10:33:37.727Z,76384.00
2019-05-31T10:34:37.835Z,72672.00
2019-05-31T10:35:37.240Z,70560.00
2019-05-31T10:36:37.795Z,19904.00
2019-05-31T10:37:37.046Z,76672.00
2019-05-31T10:38:37.009Z,78304.00
2019-05-31T10:39:37.203Z,16832.00
2019-05-31T10:40:37.765Z,33376.00
2019-05-31T10:41:37.757Z,74144.00
2019-05-31T10:42:37.562Z,21728.00
2019-05-31T10:43:37.858Z,81440.00
2019-05-31T10:44:37.943Z,29696.00
2019-05-31T10:45:37.429Z,41920.00
2019-05-31T10:46:38.885Z,73728.00
2019-05-31T10:47:38.117Z,19616.00
2019-05-31T10:48:38.155Z,58400.00
2019-05-31T10:49:37.958Z,77568.00
2019-05-31T10:50:49.940Z,76352.00
2019-05-31T10:51:37.436Z,76064.00
2019-05-31T10:52:38.324Z,74656.00
2019-05-31T10:53:38.141Z,78304.00
2019-05-31T10:54:38.123Z,72320.00
2019-05-31T10:55:37.841Z,25312.00
2019-05-31T10:56:37.442Z,18240.00
2019-05-31T10:57:38.286Z,38784.00
2019-05-31T10:58:38.146Z,85312.00
2019-05-31T10:59:38.296Z,84608.00
2019-05-31T11:00:39.505Z,24768.00
2019-05-31T11:01:36.888Z,30592.00
2019-05-31T11:02:36.906Z,34720.00
2019-05-31T11:03:36.983Z,31616.00
2019-05-31T11:04:36.930Z,93984.00
2019-05-31T11:05:37.630Z,95136.00
2019-05-31T11:06:36.963Z,91680.00
2019-05-31T11:07:36.978Z,95008.00
2019-05-31T11:08:37.032Z,93216.00
2019-05-31T11:09:37.018Z,20832.00
2019-05-31T11:10:37.024Z,97376.00
2019-05-31T11:11:39.665Z,14556.00
2019-05-31T11:12:37.205Z,19328.00
2019-05-31T11:13:37.112Z,16288.00
2019-05-31T11:14:37.112Z,64640.00
2019-05-31T11:15:38.579Z,106752.00
2019-05-31T11:16:37.392Z,11616.00
2019-05-31T11:17:44.122Z,17824.00
2019-05-31T11:18:37.570Z,16512.00
2019-05-31T11:19:55.594Z,15040.00
2019-05-31T11:20:37.507Z,14140.00
2019-05-31T11:21:37.377Z,17952.00
2019-05-31T11:22:38.040Z,14100.00
2019-05-31T11:23:37.567Z,10580.00
2019-05-31T11:24:39.578Z,9092.00
2019-05-31T11:25:37.782Z,8156.00
2019-05-31T11:26:39.753Z,7560.00
2019-05-31T11:27:38.067Z,7260.00
2019-05-31T11:28:37.878Z,7508.00
2019-05-31T11:29:42.817Z,7536.00
2019-05-31T11:30:38.030Z,10660.00
2019-05-31T11:31:38.280Z,12160.00
2019-05-31T11:32:38.373Z,10936.00
2019-05-31T11:33:42.361Z,13684.00
2019-05-31T11:34:37.995Z,12632.00
2019-05-31T11:35:38.571Z,10780.00
2019-05-31T11:36:38.157Z,10672.00
2019-05-31T11:37:38.988Z,11780.00
2019-05-31T11:38:38.285Z,10416.00
2019-05-31T11:39:38.540Z,11548.00
2019-05-31T11:40:38.388Z,14992.00
2019-05-31T11:41:38.517Z,13900.00
2019-05-31T11:42:56.859Z,15056.00
2019-05-31T11:43:38.384Z,12668.00
2019-05-31T11:44:39.084Z,13328.00
2019-05-31T11:45:40.050Z,14372.00
2019-05-31T11:46:39.192Z,14068.00
2019-05-31T11:47:40.885Z,13956.00
2019-05-31T11:48:38.663Z,14644.00
2019-05-31T11:49:38.653Z,13080.00
2019-05-31T11:50:38.822Z,14236.00
2019-05-31T11:51:38.707Z,14512.00
2019-05-31T11:52:38.892Z,11740.00
2019-05-31T11:53:41.865Z,10368.00
2019-05-31T11:55:00.384Z,9472.00
2019-05-31T11:55:37.543Z,8412.00
2019-05-31T11:56:39.743Z,8180.00
2019-05-31T11:57:37.690Z,9556.00
2019-05-31T11:58:37.565Z,9916.00
2019-05-31T11:59:37.791Z,9436.00
2019-05-31T12:00:37.653Z,8456.00
2019-05-31T12:01:37.912Z,7540.00
2019-05-31T12:02:37.589Z,7124.00
2019-05-31T12:03:37.592Z,6100.00
2019-05-31T12:04:37.912Z,8248.00
2019-05-31T12:05:38.011Z,8452.00
2019-05-31T12:06:37.813Z,10172.00
2019-05-31T12:07:38.156Z,13440.00
2019-05-31T12:08:37.992Z,12748.00
2019-05-31T12:09:38.238Z,10068.00
2019-05-31T12:10:38.104Z,10432.00
2019-05-31T12:11:38.278Z,12332.00
2019-05-31T12:12:39.126Z,14124.00
2019-05-31T12:13:38.132Z,10420.00
2019-05-31T12:14:38.143Z,10784.00
2019-05-31T12:15:39.010Z,11656.00